Time;durP1;ratioP1;P1;durP2;ratioP2;P2;SDS_P1;SDS_P2;PMS_P1;PMS_P2;Temp;Humidity;BMP_temperature;BMP_pressure;BME280_temperature;BME280_humidity;BME280_pressure;Samples;Min_cycle;Max_cycle;Signal;HPM_P1;HPM_P2
2021/11/30 00:02:09;;;;;;;7.87;4.73;;;1.70;99.90;;;1.55;74.95;97420.06;5029391;28;20363;-45
2021/11/30 00:04:37;;;;;;;7.97;4.97;;;1.70;99.90;;;1.71;74.57;97417.19;5029450;28;20053;-45
2021/11/30 00:07:05;;;;;;;7.33;4.13;;;1.80;99.90;;;1.67;74.34;97414.91;5029559;28;20068;-45
2021/11/30 00:12:15;;;;;;;6.73;4.60;;;1.70;99.90;;;1.64;74.53;97429.06;5029391;28;20371;-45
2021/11/30 00:14:46;;;;;;;6.60;4.67;;;1.80;99.90;;;1.64;74.81;97439.56;5028704;28;20105;-46
2021/11/30 00:17:16;;;;;;;8.80;4.90;;;1.80;99.90;;;1.71;74.73;97442.59;5030200;28;20054;-45
2021/11/30 00:19:45;;;;;;;9.90;5.10;;;1.80;99.90;;;1.73;74.76;97425.78;5029753;28;20049;-45
2021/11/30 00:22:21;;;;;;;6.80;4.50;;;1.80;99.90;;;1.80;74.65;97446.31;5029267;28;20084;-45
2021/11/30 00:24:50;;;;;;;7.17;4.93;;;1.80;99.90;;;1.70;75.17;97446.16;5029185;28;20061;-45
2021/11/30 00:27:19;;;;;;;9.10;5.47;;;1.90;99.90;;;1.72;74.43;97444.25;5029516;28;20053;-45
2021/11/30 00:29:47;;;;;;;6.80;4.10;;;1.80;99.90;;;1.77;74.67;97455.25;5022063;28;20054;-45
2021/11/30 00:32:15;;;;;;;14.20;5.93;;;1.80;99.90;;;1.69;74.58;97462.88;5028755;28;20049;-45
2021/11/30 00:34:43;;;;;;;7.40;5.10;;;1.80;99.90;;;1.63;74.75;97448.38;5029791;28;20057;-46
2021/11/30 00:37:10;;;;;;;7.70;4.50;;;1.70;99.90;;;1.57;74.79;97444.41;5029554;28;20234;-46
2021/11/30 00:39:38;;;;;;;8.43;5.37;;;1.70;99.90;;;1.61;75.00;97446.81;5029769;28;20067;-45
2021/11/30 00:42:06;;;;;;;9.20;6.37;;;1.70;99.90;;;1.62;74.99;97456.38;5029717;28;20243;-46
2021/11/30 00:44:36;;;;;;;9.87;5.70;;;1.70;99.90;;;1.58;74.69;97456.56;5029055;28;20061;-45
2021/11/30 00:47:05;;;;;;;6.60;5.13;;;1.70;99.90;;;1.53;74.88;97458.72;5029007;28;20057;-46
2021/11/30 00:49:33;;;;;;;9.90;5.67;;;1.70;99.90;;;1.57;74.78;97461.94;5029349;28;20061;-46
2021/11/30 00:52:01;;;;;;;10.10;5.23;;;1.70;99.90;;;1.54;74.75;97452.50;5029718;28;20068;-46
2021/11/30 00:54:29;;;;;;;11.63;6.33;;;1.70;99.90;;;1.51;74.82;97463.22;5028756;28;20051;-45
2021/11/30 00:56:59;;;;;;;7.97;5.07;;;1.70;99.90;;;1.41;75.07;97477.09;5028823;28;20053;-45
2021/11/30 00:59:27;;;;;;;8.67;5.57;;;1.60;99.90;;;1.49;75.10;97480.88;5030462;28;20050;-46
2021/11/30 01:01:58;;;;;;;9.00;4.73;;;1.70;99.90;;;1.52;74.43;97478.00;5022849;28;20050;-46
2021/11/30 01:04:27;;;;;;;7.37;4.63;;;1.60;99.90;;;1.36;74.96;97501.88;5027901;28;20065;-47
2021/11/30 01:06:56;;;;;;;6.83;5.50;;;1.60;99.90;;;1.28;74.87;97483.22;5029557;28;20045;-47
2021/11/30 01:09:24;;;;;;;9.43;5.20;;;1.50;99.90;;;1.44;74.78;97484.75;5025676;28;20631;-47
2021/11/30 01:11:54;;;;;;;10.37;5.50;;;1.60;99.90;;;1.35;75.31;97471.31;5028406;28;20087;-45
2021/11/30 01:14:23;;;;;;;10.53;5.40;;;1.60;99.90;;;1.31;74.95;97482.97;5029568;28;20570;-46
2021/11/30 01:16:51;;;;;;;8.00;5.67;;;1.50;99.90;;;1.33;74.99;97481.09;5027497;28;20067;-45
2021/11/30 01:19:19;;;;;;;9.20;5.67;;;1.50;99.90;;;1.38;74.73;97494.72;5029050;28;20049;-48
2021/11/30 01:21:47;;;;;;;8.63;4.97;;;1.60;99.90;;;1.40;74.98;97493.75;5027899;28;20064;-46
2021/11/30 01:24:15;;;;;;;6.53;4.70;;;1.60;99.90;;;1.36;74.93;97504.50;5028713;28;20246;-45
2021/11/30 01:26:43;;;;;;;8.20;4.80;;;1.60;99.90;;;1.38;75.01;97507.84;5025841;28;20059;-46
2021/11/30 01:29:11;;;;;;;8.13;4.57;;;1.50;99.90;;;1.42;75.00;97500.59;5030552;28;20053;-48
2021/11/30 01:31:39;;;;;;;10.10;5.13;;;1.50;99.90;;;1.48;74.75;97518.53;5029058;28;20054;-48
2021/11/30 01:34:07;;;;;;;11.03;4.83;;;1.60;99.90;;;1.31;74.61;97501.34;5029132;28;20045;-46
2021/11/30 01:36:35;;;;;;;4.17;3.63;;;1.50;99.90;;;1.22;75.12;97509.84;5028012;28;20055;-45
2021/11/30 01:39:05;;;;;;;7.63;4.97;;;1.50;99.90;;;1.38;74.64;97513.09;5027951;28;20050;-46
2021/11/30 01:41:35;;;;;;;8.77;5.20;;;1.50;99.90;;;1.35;75.03;97505.41;5028160;28;20267;-46
2021/11/30 01:44:08;;;;;;;6.23;4.40;;;1.50;99.90;;;1.18;75.03;97524.97;5028825;28;20047;-44
2021/11/30 01:47:07;;;;;;;8.50;4.90;;;1.40;99.90;;;1.35;75.14;97512.47;5029369;28;20355;-45
2021/11/30 01:49:35;;;;;;;7.83;4.70;;;1.50;99.90;;;1.37;74.93;97519.28;5029379;28;20049;-45
2021/11/30 01:52:11;;;;;;;9.23;5.00;;;1.50;99.90;;;1.45;74.25;97507.41;5027545;28;20235;-48
2021/11/30 01:54:40;;;;;;;7.77;4.73;;;1.60;99.90;;;1.58;74.11;97516.94;5028465;28;20053;-46
2021/11/30 01:57:11;;;;;;;10.20;5.20;;;1.70;99.90;;;1.50;74.33;97516.63;5028515;28;20055;-49
2021/11/30 01:59:39;;;;;;;6.77;4.10;;;1.70;99.90;;;1.56;73.58;97497.84;5019583;28;20055;-45
2021/11/30 02:02:08;;;;;;;5.23;3.63;;;1.90;99.90;;;1.60;73.13;97535.19;5042973;28;20347;-47
2021/11/30 02:04:37;;;;;;;9.33;4.57;;;1.80;99.90;;;1.68;73.69;97511.88;5026820;28;20050;-45
2021/11/30 02:07:07;;;;;;;8.63;3.90;;;1.80;99.90;;;1.64;73.18;97514.81;5027664;28;20347;-46
2021/11/30 02:09:38;;;;;;;8.00;4.47;;;1.80;99.90;;;1.70;72.71;97517.84;5027598;28;20049;-47
2021/11/30 02:12:08;;;;;;;9.50;4.13;;;1.80;99.90;;;1.71;73.05;97519.53;5028506;28;20057;-46
2021/11/30 02:14:38;;;;;;;6.70;3.83;;;1.90;99.90;;;1.71;72.96;97524.78;5027144;28;20057;-46
2021/11/30 02:17:08;;;;;;;9.17;4.03;;;1.90;99.90;;;1.68;72.83;97519.75;5038841;28;20095;-46
2021/11/30 02:19:52;;;;;;;5.53;3.13;;;1.90;99.70;;;1.84;72.34;97518.66;5027807;28;20060;-45
2021/11/30 02:22:19;;;;;;;6.03;3.07;;;2.00;99.90;;;1.75;72.00;97512.28;5025806;28;20053;-48
2021/11/30 02:24:47;;;;;;;6.63;3.23;;;1.90;99.50;;;1.79;72.22;97510.28;5028783;28;20050;-47
2021/11/30 02:27:16;;;;;;;5.37;2.77;;;1.90;99.60;;;1.88;71.78;97515.72;5026922;28;20237;-45
2021/11/30 02:29:44;;;;;;;6.20;3.53;;;2.00;99.00;;;1.96;72.24;97517.78;5029362;28;20165;-45
2021/11/30 02:32:11;;;;;;;4.03;2.77;;;2.00;99.20;;;2.05;72.08;97521.53;5027390;28;20051;-45
2021/11/30 02:34:40;;;;;;;6.23;2.90;;;2.10;98.50;;;2.00;71.69;97505.25;5026542;28;20056;-47
2021/11/30 02:37:12;;;;;;;8.13;3.40;;;2.10;98.20;;;1.99;70.64;97511.47;5027459;28;20411;-47
2021/11/30 02:39:40;;;;;;;3.23;2.80;;;2.10;97.20;;;2.01;71.54;97518.28;5018075;28;20045;-48
2021/11/30 02:42:09;;;;;;;5.47;2.50;;;2.10;98.10;;;2.09;71.41;97509.84;5026783;28;20075;-45
2021/11/30 02:44:38;;;;;;;4.60;2.47;;;2.10;97.70;;;2.13;70.88;97520.03;5026253;28;20049;-45
2021/11/30 02:47:09;;;;;;;4.07;2.60;;;2.20;97.10;;;2.16;70.90;97514.53;5026885;28;20259;-45
2021/11/30 02:49:42;;;;;;;4.80;3.00;;;2.20;97.20;;;2.15;70.58;97526.00;5028427;28;20075;-45
2021/11/30 02:52:18;;;;;;;6.65;2.58;;;2.10;96.60;;;2.12;70.09;97520.97;5026613;28;20053;-45
2021/11/30 02:54:54;;;;;;;6.37;2.60;;;2.20;96.60;;;2.09;70.16;97522.97;5026211;28;20049;-46
2021/11/30 02:57:23;;;;;;;5.37;2.67;;;2.20;95.60;;;2.17;70.77;97518.84;5027445;28;20053;-45
2021/11/30 02:59:54;;;;;;;4.30;2.30;;;2.10;96.80;;;2.12;69.70;97520.97;5026790;28;20044;-46
2021/11/30 03:02:26;;;;;;;6.03;2.70;;;2.20;95.10;;;2.19;70.09;97518.75;5026890;28;20408;-45
2021/11/30 03:04:59;;;;;;;3.13;2.23;;;2.20;96.00;;;2.24;70.26;97519.22;5028287;28;20101;-46
2021/11/30 03:07:35;;;;;;;3.50;2.50;;;2.20;96.30;;;2.25;69.94;97517.44;5026915;28;20054;-47
2021/11/30 03:10:06;;;;;;;4.83;2.73;;;2.20;96.00;;;2.27;69.15;97516.41;5027541;28;20053;-45
2021/11/30 03:12:33;;;;;;;3.53;2.30;;;2.30;95.50;;;2.33;70.08;97521.19;5027251;28;20049;-45
2021/11/30 03:15:15;;;;;;;2.67;1.90;;;2.30;94.20;;;2.33;68.76;97515.09;5027384;28;20085;-46
2021/11/30 03:17:45;;;;;;;4.37;2.27;;;2.30;94.20;;;2.39;69.80;97513.81;5017725;28;20238;-45
2021/11/30 03:20:15;;;;;;;3.30;1.90;;;2.40;95.00;;;2.34;69.33;97517.59;5028078;28;20377;-45
2021/11/30 03:22:43;;;;;;;3.10;1.73;;;2.40;94.50;;;2.35;68.75;97513.22;5026884;28;20057;-46
2021/11/30 03:25:14;;;;;;;2.60;1.60;;;2.30;92.90;;;2.34;67.99;97506.25;5024974;28;20053;-42
2021/11/30 03:27:42;;;;;;;2.67;1.90;;;2.40;93.60;;;2.32;67.88;97503.75;5027120;28;20267;-42
2021/11/30 03:30:11;;;;;;;2.30;1.50;;;2.30;92.80;;;2.35;67.99;97508.78;5027706;28;20267;-42
2021/11/30 03:35:26;;;;;;;4.20;3.33;;;2.40;92.40;;;2.33;67.37;97497.56;5027894;28;20049;-41
2021/11/30 03:37:54;;;;;;;4.20;2.30;;;2.40;92.50;;;2.41;68.42;97486.47;5024141;28;20063;-41
2021/11/30 03:40:23;;;;;;;1.87;1.53;;;2.40;93.00;;;2.45;68.66;97480.03;5030217;28;20059;-42
2021/11/30 03:42:51;;;;;;;4.97;2.43;;;2.40;92.20;;;2.40;67.74;97492.66;5030590;28;20052;-41
2021/11/30 03:45:19;;;;;;;2.20;1.80;;;2.40;91.70;;;2.44;68.23;97493.28;5027349;28;20079;-42
2021/11/30 03:47:47;;;;;;;3.10;2.50;;;2.40;92.30;;;2.43;67.76;97489.00;5030505;28;20225;-41
2021/11/30 03:50:15;;;;;;;2.50;1.90;;;2.40;91.50;;;2.46;67.90;97486.97;5031106;28;20445;-42
2021/11/30 03:52:43;;;;;;;3.17;1.80;;;2.50;92.30;;;2.41;67.31;97486.47;5030515;28;20049;-41
2021/11/30 03:55:11;;;;;;;5.40;2.43;;;2.50;90.70;;;2.43;67.48;97471.44;5030070;28;20052;-42
2021/11/30 03:57:58;;;;;;;2.67;1.93;;;2.50;91.50;;;2.47;67.35;97462.34;5029288;28;20045;-42
2021/11/30 04:00:26;;;;;;;3.30;1.63;;;2.50;91.10;;;2.46;66.76;97467.72;5030657;28;20067;-42
2021/11/30 04:02:54;;;;;;;5.80;1.77;;;2.50;91.00;;;2.46;67.39;97471.22;5030459;28;20057;-42
2021/11/30 04:05:23;;;;;;;3.93;1.97;;;2.50;91.60;;;2.39;66.81;97467.34;5030194;28;20053;-42
2021/11/30 04:07:51;;;;;;;3.90;1.70;;;2.40;90.90;;;2.39;66.62;97458.66;5030662;28;20343;-42
2021/11/30 04:10:19;;;;;;;3.03;2.00;;;2.50;90.70;;;2.33;66.12;97450.25;5030098;28;20359;-42
2021/11/30 04:12:49;;;;;;;4.03;1.90;;;2.40;89.90;;;2.41;67.13;97451.47;5028365;28;20053;-42
2021/11/30 04:15:17;;;;;;;5.70;2.00;;;2.40;91.20;;;2.42;66.84;97451.34;5030440;28;20374;-42
2021/11/30 04:17:46;;;;;;;2.50;1.73;;;2.50;90.90;;;2.42;65.70;97453.97;5029445;28;20042;-42
2021/11/30 04:20:14;;;;;;;1.93;1.30;;;2.50;90.10;;;2.34;65.79;97457.16;5030307;28;20597;-41
2021/11/30 04:22:43;;;;;;;2.60;1.90;;;2.50;89.50;;;2.41;66.55;97451.47;5030174;28;20059;-42
2021/11/30 04:25:12;;;;;;;3.40;1.80;;;2.50;90.60;;;2.37;66.21;97443.00;5027991;28;20045;-42
2021/11/30 04:27:40;;;;;;;4.20;1.77;;;2.50;91.30;;;2.39;66.79;97448.13;5029018;28;20352;-42
2021/11/30 04:30:10;;;;;;;2.57;1.87;;;2.40;90.70;;;2.33;65.92;97441.53;5031051;28;20359;-41
2021/11/30 04:32:39;;;;;;;3.83;1.73;;;2.50;89.30;;;2.42;66.82;97440.00;5011569;28;20287;-41
2021/11/30 04:35:09;;;;;;;2.50;1.50;;;2.40;90.60;;;2.38;66.39;97444.66;5030017;28;20075;-41
2021/11/30 04:37:37;;;;;;;3.33;1.47;;;2.40;89.70;;;2.39;66.76;97438.44;5029665;28;20049;-41
2021/11/30 04:40:11;;;;;;;3.60;1.40;;;2.40;90.30;;;2.43;66.39;97439.91;5029571;28;20046;-41
2021/11/30 04:42:42;;;;;;;2.95;1.48;;;2.40;90.50;;;2.42;66.61;97445.25;5021435;28;20067;-41
2021/11/30 04:45:21;;;;;;;3.40;1.30;;;2.50;90.60;;;2.45;66.78;97451.13;5024913;28;20061;-42
2021/11/30 04:47:52;;;;;;;2.30;1.50;;;2.50;90.80;;;2.43;66.65;97455.66;5030273;28;20381;-45
2021/11/30 04:50:23;;;;;;;3.33;1.70;;;2.50;90.80;;;2.35;67.03;97460.66;5030175;28;20065;-45
2021/11/30 04:52:53;;;;;;;2.87;1.87;;;2.50;91.20;;;2.38;67.29;97447.28;5029615;28;20051;-47
2021/11/30 04:55:26;;;;;;;3.33;1.40;;;2.50;92.10;;;2.43;67.48;97446.94;5027740;28;20075;-47
2021/11/30 04:58:00;;;;;;;1.80;1.30;;;2.50;92.50;;;2.35;67.80;97444.91;5029602;28;20262;-49
2021/11/30 05:00:30;;;;;;;3.00;1.50;;;2.40;92.90;;;2.28;67.90;97447.13;5029790;28;20060;-45
2021/11/30 05:02:58;;;;;;;2.60;1.47;;;2.40;93.70;;;2.37;68.09;97437.72;5029152;28;20057;-46
2021/11/30 05:05:26;;;;;;;2.90;1.40;;;2.40;94.20;;;2.34;68.45;97432.69;5029029;28;20058;-45
2021/11/30 05:07:54;;;;;;;2.30;1.47;;;2.40;95.10;;;2.37;68.30;97421.97;5029969;28;20057;-45
2021/11/30 05:10:22;;;;;;;2.50;1.70;;;2.40;95.70;;;2.31;68.71;97435.56;5029377;28;20061;-53
2021/11/30 05:12:50;;;;;;;2.53;1.50;;;2.40;95.70;;;2.36;68.63;97422.91;5029208;28;20255;-49
2021/11/30 05:15:18;;;;;;;2.60;1.70;;;2.40;96.00;;;2.40;68.54;97424.34;5025063;28;20083;-48
2021/11/30 05:17:46;;;;;;;2.90;1.70;;;2.30;96.40;;;2.44;68.66;97411.81;5029315;28;20057;-45
2021/11/30 05:20:14;;;;;;;4.07;2.00;;;2.30;96.50;;;2.45;69.00;97411.72;5029450;28;20385;-46
2021/11/30 05:22:42;;;;;;;2.63;1.90;;;2.30;96.90;;;2.49;68.88;97409.69;5027495;28;20061;-45
2021/11/30 05:25:23;;;;;;;5.30;2.10;;;2.40;97.20;;;2.50;68.82;97409.59;5028420;28;20056;-45
2021/11/30 05:27:51;;;;;;;4.63;1.83;;;2.40;97.20;;;2.46;68.98;97410.78;5028219;28;20058;-47
2021/11/30 05:30:21;;;;;;;2.80;1.63;;;2.30;97.00;;;2.44;69.18;97409.19;5028851;28;20053;-45
2021/11/30 05:32:50;;;;;;;4.90;1.97;;;2.30;97.60;;;2.43;69.07;97413.63;5029173;28;20373;-42
2021/11/30 05:35:18;;;;;;;4.70;2.50;;;2.30;97.70;;;2.46;69.33;97417.78;5027761;28;20049;-42
2021/11/30 05:37:46;;;;;;;3.83;2.53;;;2.30;98.20;;;2.47;69.13;97416.84;5028538;28;20049;-42
2021/11/30 05:40:14;;;;;;;6.53;2.50;;;2.30;98.10;;;2.42;69.29;97400.59;5024872;28;20335;-42
2021/11/30 05:42:42;;;;;;;7.80;3.50;;;2.30;98.20;;;2.45;69.81;97401.19;5027559;28;20063;-42
2021/11/30 05:45:10;;;;;;;4.97;2.97;;;2.30;98.50;;;2.47;69.50;97387.94;5028400;28;20061;-46
2021/11/30 05:47:38;;;;;;;6.17;2.53;;;2.20;98.50;;;2.43;69.33;97386.50;5027806;28;20049;-46
2021/11/30 05:50:07;;;;;;;4.07;3.10;;;2.20;98.50;;;2.43;69.34;97381.25;5028289;28;20061;-46
2021/11/30 05:52:35;;;;;;;4.70;2.80;;;2.20;98.70;;;2.40;69.34;97389.38;5028419;28;20041;-48
2021/11/30 05:55:04;;;;;;;7.47;2.70;;;2.20;99.00;;;2.36;69.62;97386.97;5028548;28;20057;-47
2021/11/30 05:57:33;;;;;;;3.40;2.30;;;2.10;99.20;;;2.32;69.61;97382.06;5026840;28;20059;-46
2021/11/30 06:00:02;;;;;;;5.10;2.87;;;2.10;99.30;;;2.33;69.74;97387.22;5023101;28;20180;-47
2021/11/30 06:05:41;;;;;;;4.37;2.13;;;2.10;99.50;;;2.33;70.00;97379.31;5017969;28;20071;-47
2021/11/30 06:08:09;;;;;;;6.10;2.40;;;2.10;99.80;;;2.33;69.93;97378.50;5028959;28;20049;-48
2021/11/30 06:10:37;;;;;;;3.97;2.10;;;2.10;99.80;;;2.29;69.99;97367.38;5028418;28;20050;-46
2021/11/30 06:13:05;;;;;;;3.97;2.30;;;2.10;99.90;;;2.24;70.02;97374.75;5027951;28;20056;-48
2021/11/30 06:15:33;;;;;;;3.00;2.00;;;2.00;99.90;;;2.23;70.18;97364.34;5028199;28;20291;-44
2021/11/30 06:18:01;;;;;;;3.57;1.97;;;1.90;99.90;;;2.21;70.69;97364.50;5027962;28;20037;-47
2021/11/30 06:20:29;;;;;;;4.33;2.50;;;2.00;99.90;;;2.24;70.40;97364.25;5028652;28;20063;-46
2021/11/30 06:22:57;;;;;;;3.70;2.73;;;2.00;99.90;;;2.27;70.32;97353.53;5020644;28;20055;-47
2021/11/30 06:25:25;;;;;;;3.70;2.43;;;2.00;99.90;;;2.25;70.62;97349.31;5026888;28;20247;-47
2021/11/30 06:27:54;;;;;;;4.27;2.47;;;2.10;99.90;;;2.25;70.39;97344.94;5028066;28;20049;-47
2021/11/30 06:30:22;;;;;;;4.00;2.43;;;2.10;99.90;;;2.26;70.38;97341.31;5027514;28;20054;-47
2021/11/30 06:32:49;;;;;;;3.97;2.20;;;2.10;99.90;;;2.25;70.58;97346.69;5026294;28;20348;-45
2021/11/30 06:35:17;;;;;;;4.80;2.40;;;2.10;99.90;;;2.24;70.20;97337.97;5027376;28;20064;-46
2021/11/30 06:37:45;;;;;;;2.80;1.90;;;2.10;99.90;;;2.24;70.32;97326.66;5026811;28;20049;-46
2021/11/30 06:40:13;;;;;;;3.30;1.90;;;2.00;99.90;;;2.23;70.58;97325.81;5026712;28;20068;-41
2021/11/30 06:42:41;;;;;;;3.00;1.80;;;2.10;99.90;;;2.25;70.66;97325.69;5034221;28;20063;-41
2021/11/30 06:45:09;;;;;;;3.53;2.10;;;2.00;99.90;;;2.25;70.24;97334.41;5026898;28;20058;-41
2021/11/30 06:47:40;;;;;;;3.37;1.67;;;2.10;99.90;;;2.24;70.10;97319.59;5027069;28;20059;-41
2021/11/30 06:50:10;;;;;;;2.30;1.60;;;2.10;99.90;;;2.27;70.27;97313.25;5022288;28;20067;-41
2021/11/30 06:52:39;;;;;;;3.63;1.70;;;2.00;99.90;;;2.24;70.33;97301.22;5027263;28;20076;-41
2021/11/30 06:55:09;;;;;;;1.87;1.60;;;2.00;99.90;;;2.20;70.35;97301.56;5027056;28;20061;-41
2021/11/30 06:57:36;;;;;;;4.63;2.47;;;2.00;99.60;;;2.21;70.03;97300.59;5027043;28;20057;-41
2021/11/30 07:00:08;;;;;;;3.33;1.40;;;1.90;99.90;;;2.17;69.94;97300.00;5027668;28;20045;-41
2021/11/30 07:02:36;;;;;;;2.37;1.50;;;2.00;99.70;;;2.19;70.24;97290.25;5027529;28;20045;-41
2021/11/30 07:05:16;;;;;;;2.70;1.30;;;2.00;99.10;;;2.20;70.30;97289.25;5022013;28;20079;-42
2021/11/30 07:13:31;;;;;;;3.47;2.27;;;2.00;98.60;;;2.22;70.18;97302.28;5026295;28;20071;-41
2021/11/30 07:16:03;;;;;;;2.40;1.60;;;2.00;98.30;;;2.22;69.49;97297.03;5026496;28;20057;-41
2021/11/30 07:18:34;;;;;;;2.80;1.60;;;2.00;98.20;;;2.25;70.00;97295.00;5026873;28;20358;-42
2021/11/30 07:21:03;;;;;;;3.87;1.50;;;2.00;98.20;;;2.29;69.95;97290.38;5028325;28;20242;-42
2021/11/30 07:23:31;;;;;;;3.27;1.60;;;2.00;98.50;;;2.31;70.04;97286.66;5026307;28;20053;-42
2021/11/30 07:26:00;;;;;;;1.83;1.43;;;2.10;98.40;;;2.23;69.52;97289.03;5026984;28;20054;-42
2021/11/30 07:28:31;;;;;;;2.13;1.70;;;2.10;97.70;;;2.25;69.09;97278.41;5020475;28;20061;-42
2021/11/30 07:31:11;;;;;;;2.30;1.43;;;2.10;97.20;;;2.20;69.06;97277.94;5027239;28;20056;-42
2021/11/30 07:33:44;;;;;;;3.20;1.70;;;2.10;97.50;;;2.24;69.28;97272.31;5018766;28;20045;-42
2021/11/30 07:36:14;;;;;;;3.67;1.57;;;2.10;97.00;;;2.20;68.92;97275.31;5026367;28;20477;-42
2021/11/30 07:38:46;;;;;;;2.10;1.23;;;2.10;96.90;;;2.17;68.75;97278.97;5027068;28;20045;-42
2021/11/30 07:41:17;;;;;;;2.20;1.40;;;2.10;96.30;;;2.15;69.10;97275.63;5037004;28;20057;-42
2021/11/30 07:43:46;;;;;;;2.57;1.30;;;2.10;95.70;;;2.12;69.04;97273.28;5027611;28;20055;-45
2021/11/30 07:46:14;;;;;;;2.93;1.40;;;2.10;96.00;;;2.15;68.93;97273.00;5036464;28;20351;-42
2021/11/30 07:48:42;;;;;;;1.87;1.30;;;2.10;95.90;;;2.19;69.47;97278.88;5026600;28;20265;-42
2021/11/30 07:51:15;;;;;;;1.83;1.20;;;2.10;96.00;;;2.15;69.01;97276.50;5037187;28;20066;-42
2021/11/30 07:53:45;;;;;;;2.10;1.40;;;2.10;95.90;;;2.20;69.25;97272.69;5037913;28;20262;-42
2021/11/30 07:56:13;;;;;;;4.20;2.03;;;2.10;95.70;;;2.20;69.41;97272.69;5038079;28;20225;-42
2021/11/30 07:58:42;;;;;;;2.93;1.60;;;2.10;96.30;;;2.21;69.10;97271.72;5035583;28;20071;-42
2021/11/30 08:01:12;;;;;;;5.93;3.00;;;2.10;96.20;;;2.25;69.28;97265.25;5036519;28;20063;-45
2021/11/30 08:03:40;;;;;;;3.77;2.07;;;2.10;96.70;;;2.26;69.09;97246.75;5037768;28;20060;-46
2021/11/30 08:06:08;;;;;;;4.60;2.03;;;2.10;96.80;;;2.25;68.94;97245.09;5036374;28;20069;-47
2021/11/30 08:08:36;;;;;;;3.13;2.23;;;2.10;96.10;;;2.22;69.19;97236.63;5026761;28;20426;-46
2021/11/30 08:11:06;;;;;;;24.33;11.80;;;2.10;96.20;;;2.25;68.96;97234.59;5026659;28;20057;-48
2021/11/30 08:13:34;;;;;;;7.60;3.07;;;2.10;96.50;;;2.25;68.69;97223.22;5027221;28;20343;-44
2021/11/30 08:16:02;;;;;;;2.53;1.83;;;2.10;95.00;;;2.27;68.18;97219.56;5025480;28;20061;-45
2021/11/30 08:18:30;;;;;;;2.67;1.80;;;2.10;96.00;;;2.25;68.76;97205.72;5026425;28;20061;-45
2021/11/30 08:20:58;;;;;;;2.73;1.47;;;2.10;94.90;;;2.24;68.56;97209.28;5028281;28;20059;-49
2021/11/30 08:23:26;;;;;;;2.27;1.33;;;2.10;95.50;;;2.21;68.17;97220.03;5030474;28;20064;-45
2021/11/30 08:25:54;;;;;;;3.10;1.50;;;2.10;95.00;;;2.27;68.66;97195.91;5031415;28;20053;-45
2021/11/30 08:28:22;;;;;;;2.33;1.67;;;2.20;95.40;;;2.36;68.77;97192.56;5028446;28;20057;-47
2021/11/30 08:30:50;;;;;;;3.30;2.13;;;2.20;96.00;;;2.31;67.85;97194.72;5030223;28;20049;-47
2021/11/30 08:33:18;;;;;;;1.53;1.23;;;2.20;94.70;;;2.35;68.94;97196.13;5028768;28;20053;-43
2021/11/30 08:35:47;;;;;;;2.23;1.30;;;2.20;95.20;;;2.39;68.52;97206.41;5022211;28;20049;-44
2021/11/30 08:38:16;;;;;;;3.40;2.30;;;2.30;95.20;;;2.43;68.66;97195.53;5029965;28;20235;-44
2021/11/30 08:40:44;;;;;;;3.03;1.43;;;2.30;95.20;;;2.47;68.29;97191.69;5029863;28;20057;-48
2021/11/30 08:43:12;;;;;;;2.77;1.53;;;2.30;95.00;;;2.55;68.65;97191.91;5029234;28;20053;-44
2021/11/30 08:45:40;;;;;;;2.93;2.00;;;2.40;95.20;;;2.62;68.16;97188.78;5030333;28;20680;-44
2021/11/30 08:48:09;;;;;;;3.03;1.27;;;2.50;95.10;;;2.62;68.25;97176.50;5028522;28;20244;-45
2021/11/30 08:50:37;;;;;;;3.93;1.53;;;2.50;94.50;;;2.66;68.52;97171.84;5020289;28;20061;-44
2021/11/30 08:53:06;;;;;;;5.60;2.87;;;2.50;94.30;;;2.63;68.18;97165.03;5029159;28;20057;-44
2021/11/30 08:55:35;;;;;;;4.43;2.93;;;2.40;94.80;;;2.68;68.23;97172.56;5028425;28;20055;-44
2021/11/30 08:58:04;;;;;;;2.70;1.70;;;2.50;95.00;;;2.70;68.31;97176.72;5030010;28;20049;-44
2021/11/30 09:00:33;;;;;;;2.90;1.60;;;2.50;94.60;;;2.70;68.04;97165.38;5030666;28;20846;-44
2021/11/30 09:03:01;;;;;;;1.70;1.30;;;2.60;93.90;;;2.71;67.75;97151.28;5037617;28;20041;-41
2021/11/30 09:05:29;;;;;;;2.03;1.37;;;2.60;93.40;;;2.74;68.36;97161.53;5037757;28;20056;-40
2021/11/30 09:07:57;;;;;;;1.60;1.27;;;2.60;94.50;;;2.69;67.62;97161.06;5038098;28;20045;-41
2021/11/30 09:10:26;;;;;;;1.67;1.00;;;2.60;93.70;;;2.72;68.05;97184.50;5037801;28;20378;-41
2021/11/30 09:12:54;;;;;;;2.20;1.17;;;2.60;94.30;;;2.79;68.43;97176.94;5037445;28;20049;-41
2021/11/30 09:15:22;;;;;;;1.53;1.20;;;2.70;94.30;;;2.72;67.76;97168.72;5037003;28;20064;-41
2021/11/30 09:17:53;;;;;;;3.47;2.10;;;2.70;93.50;;;2.77;67.95;97171.78;5037473;28;20047;-47
2021/11/30 09:20:24;;;;;;;2.10;1.40;;;2.80;93.80;;;2.79;67.32;97164.63;5037927;28;20060;-47
2021/11/30 09:22:52;;;;;;;1.30;1.00;;;2.80;93.70;;;2.86;68.47;97157.91;5041063;28;20063;-44
2021/11/30 09:25:22;;;;;;;1.10;0.93;;;2.80;93.60;;;2.90;68.13;97154.06;5048618;28;20377;-44
2021/11/30 09:27:51;;;;;;;1.80;0.97;;;2.80;94.60;;;2.92;67.28;97146.88;5048660;28;20251;-45
2021/11/30 09:30:23;;;;;;;1.50;1.10;;;2.90;93.40;;;3.01;68.16;97149.75;5045991;28;20052;-48
2021/11/30 09:32:52;;;;;;;1.53;1.20;;;3.00;93.80;;;3.02;67.61;97159.28;5048792;28;20052;-46
2021/11/30 09:35:23;;;;;;;1.80;1.27;;;3.00;93.70;;;3.03;67.26;97148.66;5047739;28;20063;-45
2021/11/30 09:37:54;;;;;;;11.93;4.30;;;3.00;93.50;;;3.08;67.49;97150.88;5047770;28;20053;-47
2021/11/30 09:40:28;;;;;;;5.87;2.37;;;3.10;93.90;;;3.14;67.90;97156.50;5048142;28;20063;-46
2021/11/30 09:43:18;;;;;;;2.77;1.33;;;3.10;93.40;;;3.11;67.48;97146.22;5047602;28;20063;-45
2021/11/30 09:45:47;;;;;;;12.67;6.10;;;3.10;92.70;;;3.20;67.83;97123.59;5041002;28;20279;-45
2021/11/30 09:48:16;;;;;;;6.10;3.00;;;3.20;93.80;;;3.29;68.27;97135.13;5042318;28;20053;-46
2021/11/30 09:50:45;;;;;;;1.97;1.10;;;3.20;93.90;;;3.27;67.67;97129.16;5035353;28;20377;-46
2021/11/30 09:53:14;;;;;;;0.77;0.70;;;3.20;93.20;;;3.24;67.85;97124.16;5038004;28;20243;-45
2021/11/30 09:55:44;;;;;;;1.97;1.10;;;3.30;94.20;;;3.34;67.47;97119.81;5037588;28;20402;-44
2021/11/30 09:58:12;;;;;;;1.20;1.00;;;3.30;94.40;;;3.41;68.22;97114.84;5051174;28;20037;-44
2021/11/30 10:00:43;;;;;;;1.00;0.73;;;3.40;94.60;;;3.42;67.71;97127.06;5054062;28;20053;-45
2021/11/30 10:03:18;;;;;;;1.93;0.50;;;3.50;94.50;;;3.48;68.30;97110.75;5053598;28;20045;-50
2021/11/30 10:05:46;;;;;;;0.47;0.43;;;3.50;94.60;;;3.49;68.13;97105.34;5039290;28;20057;-45
2021/11/30 10:08:49;;;;;;;1.17;0.60;;;3.50;94.50;;;3.57;67.87;97090.69;5039178;28;20051;-45
2021/11/30 10:11:36;;;;;;;1.77;0.90;;;3.60;94.60;;;3.59;67.83;97100.13;5039699;28;20060;-44
2021/11/30 10:14:33;;;;;;;1.87;1.10;;;3.60;94.20;;;3.61;67.90;97095.56;5038190;28;20047;-45
2021/11/30 10:17:23;;;;;;;1.13;0.60;;;3.70;93.80;;;3.68;68.26;97090.59;5039757;28;20048;-47
2021/11/30 10:20:09;;;;;;;1.87;0.50;;;3.70;94.40;;;3.73;67.95;97093.69;5037703;28;20343;-47
2021/11/30 10:22:48;;;;;;;0.40;0.40;;;3.80;94.50;;;3.78;68.11;97085.38;5038762;28;20053;-47
2021/11/30 10:25:28;;;;;;;0.60;0.60;;;3.80;94.60;;;3.78;67.94;97091.50;5033611;28;20274;-48
2021/11/30 10:28:00;;;;;;;0.80;0.70;;;3.80;94.30;;;3.69;67.58;97097.56;5037737;28;20258;-46
2021/11/30 10:30:31;;;;;;;0.40;0.40;;;3.80;94.00;;;3.63;67.85;97095.44;5037165;28;20045;-45
2021/11/30 10:33:07;;;;;;;0.50;0.50;;;3.80;94.50;;;3.69;68.39;97085.22;5037641;28;20052;-46
2021/11/30 10:35:35;;;;;;;1.17;0.87;;;3.80;94.90;;;3.77;68.31;97079.28;5037457;28;20228;-45
2021/11/30 10:38:05;;;;;;;0.40;0.40;;;3.80;95.10;;;3.78;68.16;97088.00;5038760;28;20058;-45
2021/11/30 10:40:40;;;;;;;0.40;0.40;;;3.80;95.00;;;3.84;68.37;97084.84;5037357;28;20251;-45
2021/11/30 10:43:11;;;;;;;1.23;0.70;;;3.90;95.40;;;3.91;68.58;97072.81;5027495;28;20224;-45
2021/11/30 10:45:43;;;;;;;0.63;0.50;;;3.90;95.60;;;3.87;68.40;97077.50;5026839;28;20056;-46
2021/11/30 10:48:24;;;;;;;0.63;0.30;;;3.90;95.60;;;3.86;68.77;97056.59;5022317;28;20049;-48
2021/11/30 10:50:57;;;;;;;0.37;0.37;;;3.90;95.60;;;3.81;68.47;97066.69;5026694;28;20061;-47
2021/11/30 10:53:30;;;;;;;2.17;0.70;;;3.90;95.30;;;3.78;68.82;97052.00;5026890;28;20061;-48
2021/11/30 10:56:03;;;;;;;0.73;0.65;;;3.80;95.40;;;3.79;68.72;97072.09;5027222;28;20067;-46
2021/11/30 10:58:38;;;;;;;1.90;1.37;;;3.80;95.80;;;3.84;69.13;97040.94;5027062;28;20052;-45
2021/11/30 11:01:18;;;;;;;1.90;1.30;;;3.90;96.10;;;3.87;68.78;97058.25;5026101;28;20060;-45